sensor_id;sensor_type;location;lat;lon;timestamp;P1;durP1;ratioP1;P2;durP2;ratioP2
61903;SDS011;47857;52.270;6.804;2024-03-23T00:55:38;49.17;;;9.23;;
61903;SDS011;47857;52.270;6.804;2024-03-23T00:58:03;37.13;;;8.43;;
61903;SDS011;47857;52.270;6.804;2024-03-23T01:00:29;44.90;;;9.32;;
61903;SDS011;47857;52.270;6.804;2024-03-23T01:02:54;42.20;;;8.93;;
61903;SDS011;47857;52.270;6.804;2024-03-23T01:05:20;44.90;;;9.95;;
61903;SDS011;47857;52.270;6.804;2024-03-23T01:07:45;44.67;;;9.20;;
61903;SDS011;47857;52.270;6.804;2024-03-23T01:10:11;39.08;;;8.50;;
61903;SDS011;47857;52.270;6.804;2024-03-23T01:12:36;45.92;;;8.93;;
61903;SDS011;47857;52.270;6.804;2024-03-23T01:15:02;34.78;;;8.18;;
61903;SDS011;47857;52.270;6.804;2024-03-23T01:17:28;42.10;;;8.90;;
61903;SDS011;47857;52.270;6.804;2024-03-23T01:19:53;38.65;;;8.02;;
61903;SDS011;47857;52.270;6.804;2024-03-23T01:22:19;40.80;;;9.00;;
61903;SDS011;47857;52.270;6.804;2024-03-23T01:24:44;37.58;;;8.25;;
61903;SDS011;47857;52.270;6.804;2024-03-23T01:27:10;40.33;;;8.68;;
61903;SDS011;47857;52.270;6.804;2024-03-23T01:29:35;35.97;;;8.48;;
61903;SDS011;47857;52.270;6.804;2024-03-23T01:32:01;35.70;;;7.13;;
61903;SDS011;47857;52.270;6.804;2024-03-23T01:34:26;37.50;;;6.90;;
61903;SDS011;47857;52.270;6.804;2024-03-23T01:36:53;33.70;;;7.20;;
61903;SDS011;47857;52.270;6.804;2024-03-23T01:39:18;43.85;;;8.68;;
61903;SDS011;47857;52.270;6.804;2024-03-23T01:41:44;31.98;;;7.30;;
61903;SDS011;47857;52.270;6.804;2024-03-23T01:44:09;35.47;;;7.03;;
61903;SDS011;47857;52.270;6.804;2024-03-23T01:46:38;32.60;;;6.93;;
61903;SDS011;47857;52.270;6.804;2024-03-23T01:49:04;31.20;;;6.25;;
61903;SDS011;47857;52.270;6.804;2024-03-23T01:51:30;36.65;;;7.65;;
61903;SDS011;47857;52.270;6.804;2024-03-23T01:53:56;29.55;;;6.30;;
61903;SDS011;47857;52.270;6.804;2024-03-23T01:56:22;35.70;;;7.05;;
61903;SDS011;47857;52.270;6.804;2024-03-23T01:58:48;37.70;;;6.75;;
61903;SDS011;47857;52.270;6.804;2024-03-23T02:01:14;34.70;;;6.47;;
61903;SDS011;47857;52.270;6.804;2024-03-23T02:03:39;37.60;;;7.55;;
61903;SDS011;47857;52.270;6.804;2024-03-23T02:06:04;35.47;;;7.15;;
61903;SDS011;47857;52.270;6.804;2024-03-23T02:08:32;40.15;;;6.75;;
61903;SDS011;47857;52.270;6.804;2024-03-23T02:10:58;33.15;;;6.28;;
61903;SDS011;47857;52.270;6.804;2024-03-23T02:13:23;37.55;;;6.50;;
61903;SDS011;47857;52.270;6.804;2024-03-23T02:15:49;35.90;;;6.82;;
61903;SDS011;47857;52.270;6.804;2024-03-23T02:18:15;36.47;;;7.20;;
61903;SDS011;47857;52.270;6.804;2024-03-23T02:20:40;29.45;;;6.45;;
61903;SDS011;47857;52.270;6.804;2024-03-23T02:23:06;32.30;;;6.32;;
61903;SDS011;47857;52.270;6.804;2024-03-23T02:25:38;39.40;;;7.25;;
61903;SDS011;47857;52.270;6.804;2024-03-23T02:28:03;31.33;;;6.65;;
61903;SDS011;47857;52.270;6.804;2024-03-23T02:30:29;39.17;;;6.97;;
61903;SDS011;47857;52.270;6.804;2024-03-23T02:32:55;46.15;;;7.22;;
61903;SDS011;47857;52.270;6.804;2024-03-23T02:35:21;30.35;;;7.05;;
61903;SDS011;47857;52.270;6.804;2024-03-23T02:37:46;37.72;;;7.13;;
61903;SDS011;47857;52.270;6.804;2024-03-23T02:40:14;34.55;;;7.65;;
61903;SDS011;47857;52.270;6.804;2024-03-23T02:42:40;37.15;;;7.65;;
61903;SDS011;47857;52.270;6.804;2024-03-23T02:45:06;31.52;;;7.35;;
61903;SDS011;47857;52.270;6.804;2024-03-23T02:47:32;34.00;;;7.32;;
61903;SDS011;47857;52.270;6.804;2024-03-23T02:49:57;36.10;;;7.80;;
61903;SDS011;47857;52.270;6.804;2024-03-23T02:52:23;33.03;;;8.00;;
61903;SDS011;47857;52.270;6.804;2024-03-23T02:54:48;36.38;;;7.53;;
61903;SDS011;47857;52.270;6.804;2024-03-23T02:57:14;37.08;;;8.50;;
61903;SDS011;47857;52.270;6.804;2024-03-23T02:59:40;48.50;;;9.05;;
61903;SDS011;47857;52.270;6.804;2024-03-23T03:02:06;45.08;;;8.95;;
61903;SDS011;47857;52.270;6.804;2024-03-23T03:04:32;40.50;;;9.15;;
61903;SDS011;47857;52.270;6.804;2024-03-23T03:06:57;39.08;;;8.77;;
61903;SDS011;47857;52.270;6.804;2024-03-23T03:09:23;36.70;;;9.57;;
61903;SDS011;47857;52.270;6.804;2024-03-23T03:11:49;54.75;;;10.40;;
61903;SDS011;47857;52.270;6.804;2024-03-23T03:14:14;42.95;;;9.90;;
61903;SDS011;47857;52.270;6.804;2024-03-23T03:16:40;39.10;;;9.90;;
61903;SDS011;47857;52.270;6.804;2024-03-23T03:19:05;44.22;;;9.63;;
61903;SDS011;47857;52.270;6.804;2024-03-23T03:21:31;44.72;;;11.35;;
61903;SDS011;47857;52.270;6.804;2024-03-23T03:23:57;41.35;;;10.35;;
61903;SDS011;47857;52.270;6.804;2024-03-23T03:26:23;38.97;;;10.50;;
61903;SDS011;47857;52.270;6.804;2024-03-23T03:28:49;34.10;;;10.25;;
61903;SDS011;47857;52.270;6.804;2024-03-23T03:31:15;44.13;;;11.05;;
61903;SDS011;47857;52.270;6.804;2024-03-23T03:33:41;47.08;;;11.13;;
61903;SDS011;47857;52.270;6.804;2024-03-23T03:36:07;48.15;;;10.82;;
61903;SDS011;47857;52.270;6.804;2024-03-23T03:38:33;52.13;;;10.77;;
61903;SDS011;47857;52.270;6.804;2024-03-23T03:41:00;42.95;;;11.40;;
61903;SDS011;47857;52.270;6.804;2024-03-23T03:43:26;43.05;;;11.30;;
61903;SDS011;47857;52.270;6.804;2024-03-23T03:45:56;41.75;;;11.30;;
61903;SDS011;47857;52.270;6.804;2024-03-23T03:48:22;47.60;;;11.10;;
61903;SDS011;47857;52.270;6.804;2024-03-23T03:50:47;41.60;;;11.55;;
61903;SDS011;47857;52.270;6.804;2024-03-23T03:53:13;41.47;;;11.63;;
61903;SDS011;47857;52.270;6.804;2024-03-23T03:55:39;45.30;;;12.40;;
61903;SDS011;47857;52.270;6.804;2024-03-23T03:58:05;37.22;;;10.88;;
61903;SDS011;47857;52.270;6.804;2024-03-23T04:00:30;32.85;;;10.90;;
61903;SDS011;47857;52.270;6.804;2024-03-23T04:02:56;42.72;;;11.18;;
61903;SDS011;47857;52.270;6.804;2024-03-23T04:05:22;42.22;;;12.05;;
61903;SDS011;47857;52.270;6.804;2024-03-23T04:07:47;49.85;;;12.68;;
61903;SDS011;47857;52.270;6.804;2024-03-23T04:10:13;44.78;;;11.98;;
61903;SDS011;47857;52.270;6.804;2024-03-23T04:12:40;42.63;;;11.88;;
61903;SDS011;47857;52.270;6.804;2024-03-23T04:15:06;45.53;;;11.63;;
61903;SDS011;47857;52.270;6.804;2024-03-23T04:17:32;44.50;;;11.55;;
61903;SDS011;47857;52.270;6.804;2024-03-23T04:19:59;35.95;;;11.65;;
61903;SDS011;47857;52.270;6.804;2024-03-23T04:22:25;45.22;;;11.98;;
61903;SDS011;47857;52.270;6.804;2024-03-23T04:24:54;49.97;;;12.48;;
61903;SDS011;47857;52.270;6.804;2024-03-23T04:27:20;46.17;;;12.13;;
61903;SDS011;47857;52.270;6.804;2024-03-23T04:29:47;35.83;;;12.43;;
61903;SDS011;47857;52.270;6.804;2024-03-23T04:32:14;37.97;;;11.95;;
61903;SDS011;47857;52.270;6.804;2024-03-23T04:34:39;41.47;;;13.23;;
61903;SDS011;47857;52.270;6.804;2024-03-23T04:37:05;39.38;;;11.57;;
61903;SDS011;47857;52.270;6.804;2024-03-23T04:39:30;47.38;;;13.10;;
61903;SDS011;47857;52.270;6.804;2024-03-23T04:41:56;47.15;;;14.00;;
61903;SDS011;47857;52.270;6.804;2024-03-23T04:44:21;45.58;;;13.45;;
61903;SDS011;47857;52.270;6.804;2024-03-23T04:46:47;42.40;;;13.38;;
61903;SDS011;47857;52.270;6.804;2024-03-23T04:49:12;49.75;;;14.07;;
61903;SDS011;47857;52.270;6.804;2024-03-23T04:51:38;44.05;;;13.35;;
61903;SDS011;47857;52.270;6.804;2024-03-23T04:54:03;38.40;;;13.15;;
61903;SDS011;47857;52.270;6.804;2024-03-23T04:56:30;42.53;;;13.57;;
61903;SDS011;47857;52.270;6.804;2024-03-23T04:58:56;47.10;;;14.40;;
61903;SDS011;47857;52.270;6.804;2024-03-23T05:01:26;48.83;;;14.68;;
61903;SDS011;47857;52.270;6.804;2024-03-23T05:03:52;46.58;;;14.27;;
61903;SDS011;47857;52.270;6.804;2024-03-23T05:06:18;42.08;;;14.27;;
61903;SDS011;47857;52.270;6.804;2024-03-23T05:08:44;44.88;;;13.98;;
61903;SDS011;47857;52.270;6.804;2024-03-23T05:11:10;40.38;;;14.20;;
61903;SDS011;47857;52.270;6.804;2024-03-23T05:13:36;43.83;;;14.35;;
61903;SDS011;47857;52.270;6.804;2024-03-23T05:16:02;49.75;;;15.30;;
61903;SDS011;47857;52.270;6.804;2024-03-23T05:18:27;47.17;;;14.60;;
61903;SDS011;47857;52.270;6.804;2024-03-23T05:20:57;41.28;;;14.73;;
61903;SDS011;47857;52.270;6.804;2024-03-23T05:23:23;41.55;;;14.68;;
61903;SDS011;47857;52.270;6.804;2024-03-23T05:25:49;47.22;;;15.13;;
61903;SDS011;47857;52.270;6.804;2024-03-23T05:28:15;45.90;;;15.52;;
61903;SDS011;47857;52.270;6.804;2024-03-23T05:30:40;44.30;;;14.77;;
61903;SDS011;47857;52.270;6.804;2024-03-23T05:33:06;51.08;;;15.70;;
61903;SDS011;47857;52.270;6.804;2024-03-23T05:35:32;39.85;;;14.95;;
61903;SDS011;47857;52.270;6.804;2024-03-23T05:37:58;41.40;;;15.00;;
61903;SDS011;47857;52.270;6.804;2024-03-23T05:40:26;44.28;;;15.40;;
61903;SDS011;47857;52.270;6.804;2024-03-23T05:42:52;40.53;;;14.82;;
61903;SDS011;47857;52.270;6.804;2024-03-23T05:45:18;40.97;;;14.43;;
61903;SDS011;47857;52.270;6.804;2024-03-23T05:47:44;39.58;;;15.18;;
61903;SDS011;47857;52.270;6.804;2024-03-23T05:50:10;43.72;;;16.50;;
61903;SDS011;47857;52.270;6.804;2024-03-23T05:52:38;38.60;;;14.18;;
61903;SDS011;47857;52.270;6.804;2024-03-23T05:55:04;40.88;;;14.75;;
61903;SDS011;47857;52.270;6.804;2024-03-23T05:57:30;48.25;;;14.77;;
61903;SDS011;47857;52.270;6.804;2024-03-23T05:59:56;35.97;;;14.23;;
61903;SDS011;47857;52.270;6.804;2024-03-23T06:02:22;40.58;;;13.90;;
61903;SDS011;47857;52.270;6.804;2024-03-23T06:04:47;41.42;;;14.43;;
61903;SDS011;47857;52.270;6.804;2024-03-23T06:07:13;37.40;;;13.93;;
61903;SDS011;47857;52.270;6.804;2024-03-23T06:09:39;36.45;;;13.63;;
61903;SDS011;47857;52.270;6.804;2024-03-23T06:12:05;35.78;;;13.38;;
61903;SDS011;47857;52.270;6.804;2024-03-23T06:14:31;41.72;;;13.38;;
61903;SDS011;47857;52.270;6.804;2024-03-23T06:16:58;36.85;;;12.88;;
61903;SDS011;47857;52.270;6.804;2024-03-23T06:19:27;39.17;;;13.50;;
61903;SDS011;47857;52.270;6.804;2024-03-23T06:21:55;43.00;;;13.05;;
61903;SDS011;47857;52.270;6.804;2024-03-23T06:24:24;34.38;;;12.93;;
61903;SDS011;47857;52.270;6.804;2024-03-23T06:26:49;36.67;;;12.30;;
61903;SDS011;47857;52.270;6.804;2024-03-23T06:29:15;35.72;;;12.43;;
61903;SDS011;47857;52.270;6.804;2024-03-23T06:31:40;32.53;;;11.43;;
61903;SDS011;47857;52.270;6.804;2024-03-23T06:34:06;36.95;;;12.50;;
61903;SDS011;47857;52.270;6.804;2024-03-23T06:36:31;36.15;;;12.70;;
61903;SDS011;47857;52.270;6.804;2024-03-23T06:38:57;35.03;;;13.02;;
61903;SDS011;47857;52.270;6.804;2024-03-23T06:41:24;34.42;;;11.68;;
61903;SDS011;47857;52.270;6.804;2024-03-23T06:43:49;34.90;;;11.57;;
61903;SDS011;47857;52.270;6.804;2024-03-23T06:46:15;31.45;;;10.73;;
61903;SDS011;47857;52.270;6.804;2024-03-23T06:48:40;33.17;;;11.50;;
61903;SDS011;47857;52.270;6.804;2024-03-23T06:51:06;32.65;;;9.88;;
61903;SDS011;47857;52.270;6.804;2024-03-23T06:53:31;31.45;;;10.02;;
61903;SDS011;47857;52.270;6.804;2024-03-23T06:55:57;30.52;;;9.65;;
61903;SDS011;47857;52.270;6.804;2024-03-23T06:58:23;29.88;;;9.45;;
61903;SDS011;47857;52.270;6.804;2024-03-23T07:00:50;24.95;;;9.20;;
61903;SDS011;47857;52.270;6.804;2024-03-23T07:03:18;26.98;;;9.13;;
61903;SDS011;47857;52.270;6.804;2024-03-23T07:05:45;21.83;;;8.68;;
61903;SDS011;47857;52.270;6.804;2024-03-23T07:08:11;28.00;;;8.57;;
61903;SDS011;47857;52.270;6.804;2024-03-23T07:10:39;25.05;;;7.60;;
61903;SDS011;47857;52.270;6.804;2024-03-23T07:13:04;21.48;;;7.97;;
61903;SDS011;47857;52.270;6.804;2024-03-23T07:15:30;33.53;;;8.45;;
61903;SDS011;47857;52.270;6.804;2024-03-23T07:17:55;25.10;;;8.40;;
61903;SDS011;47857;52.270;6.804;2024-03-23T07:20:21;25.13;;;7.18;;
61903;SDS011;47857;52.270;6.804;2024-03-23T07:22:46;23.08;;;6.22;;
61903;SDS011;47857;52.270;6.804;2024-03-23T07:25:14;19.40;;;5.28;;
61903;SDS011;47857;52.270;6.804;2024-03-23T07:27:40;17.08;;;5.22;;
61903;SDS011;47857;52.270;6.804;2024-03-23T07:30:06;15.15;;;5.10;;
61903;SDS011;47857;52.270;6.804;2024-03-23T07:32:32;22.58;;;4.68;;
61903;SDS011;47857;52.270;6.804;2024-03-23T07:34:58;17.23;;;3.97;;
61903;SDS011;47857;52.270;6.804;2024-03-23T07:37:23;12.07;;;2.55;;
61903;SDS011;47857;52.270;6.804;2024-03-23T07:39:49;8.68;;;2.78;;
61903;SDS011;47857;52.270;6.804;2024-03-23T07:42:15;7.78;;;2.47;;
61903;SDS011;47857;52.270;6.804;2024-03-23T07:44:40;9.77;;;2.20;;
61903;SDS011;47857;52.270;6.804;2024-03-23T07:47:06;11.32;;;2.60;;
61903;SDS011;47857;52.270;6.804;2024-03-23T07:49:32;12.95;;;2.65;;
61903;SDS011;47857;52.270;6.804;2024-03-23T07:51:57;11.75;;;3.55;;
61903;SDS011;47857;52.270;6.804;2024-03-23T07:54:23;12.80;;;3.95;;
61903;SDS011;47857;52.270;6.804;2024-03-23T07:56:48;13.98;;;4.03;;
61903;SDS011;47857;52.270;6.804;2024-03-23T07:59:14;12.68;;;3.30;;
61903;SDS011;47857;52.270;6.804;2024-03-23T08:01:39;11.32;;;2.97;;
61903;SDS011;47857;52.270;6.804;2024-03-23T08:04:05;13.63;;;3.00;;
61903;SDS011;47857;52.270;6.804;2024-03-23T08:06:31;12.00;;;2.67;;
61903;SDS011;47857;52.270;6.804;2024-03-23T08:08:56;13.10;;;3.08;;
61903;SDS011;47857;52.270;6.804;2024-03-23T08:11:29;9.90;;;3.63;;
61903;SDS011;47857;52.270;6.804;2024-03-23T08:13:56;17.10;;;3.33;;
61903;SDS011;47857;52.270;6.804;2024-03-23T08:16:22;12.73;;;3.75;;
61903;SDS011;47857;52.270;6.804;2024-03-23T08:18:47;17.02;;;3.83;;
61903;SDS011;47857;52.270;6.804;2024-03-23T08:21:13;20.98;;;4.50;;
61903;SDS011;47857;52.270;6.804;2024-03-23T08:23:38;18.20;;;4.47;;
61903;SDS011;47857;52.270;6.804;2024-03-23T08:26:05;17.05;;;3.95;;
61903;SDS011;47857;52.270;6.804;2024-03-23T08:28:34;15.77;;;3.97;;
61903;SDS011;47857;52.270;6.804;2024-03-23T08:31:00;17.02;;;4.15;;
61903;SDS011;47857;52.270;6.804;2024-03-23T08:33:28;25.08;;;5.13;;
61903;SDS011;47857;52.270;6.804;2024-03-23T08:35:54;17.83;;;3.67;;
61903;SDS011;47857;52.270;6.804;2024-03-23T08:38:21;17.83;;;3.70;;
61903;SDS011;47857;52.270;6.804;2024-03-23T08:40:47;14.43;;;3.70;;
61903;SDS011;47857;52.270;6.804;2024-03-23T08:43:12;16.20;;;3.65;;
61903;SDS011;47857;52.270;6.804;2024-03-23T08:45:38;19.15;;;3.97;;
61903;SDS011;47857;52.270;6.804;2024-03-23T08:48:03;12.05;;;3.53;;
61903;SDS011;47857;52.270;6.804;2024-03-23T08:50:29;14.77;;;3.25;;
61903;SDS011;47857;52.270;6.804;2024-03-23T08:52:54;15.90;;;3.55;;
61903;SDS011;47857;52.270;6.804;2024-03-23T08:55:20;12.32;;;3.35;;
61903;SDS011;47857;52.270;6.804;2024-03-23T08:57:45;16.15;;;2.90;;
61903;SDS011;47857;52.270;6.804;2024-03-23T09:00:11;18.52;;;3.45;;
61903;SDS011;47857;52.270;6.804;2024-03-23T09:02:37;16.15;;;2.72;;
61903;SDS011;47857;52.270;6.804;2024-03-23T09:05:03;14.25;;;3.05;;
61903;SDS011;47857;52.270;6.804;2024-03-23T09:07:31;12.52;;;2.85;;
61903;SDS011;47857;52.270;6.804;2024-03-23T09:09:57;11.43;;;3.10;;
61903;SDS011;47857;52.270;6.804;2024-03-23T09:12:23;16.73;;;3.00;;
61903;SDS011;47857;52.270;6.804;2024-03-23T09:14:49;11.40;;;2.90;;
61903;SDS011;47857;52.270;6.804;2024-03-23T09:17:15;15.18;;;2.97;;
61903;SDS011;47857;52.270;6.804;2024-03-23T09:19:40;13.93;;;2.85;;
61903;SDS011;47857;52.270;6.804;2024-03-23T09:22:06;11.35;;;2.90;;
61903;SDS011;47857;52.270;6.804;2024-03-23T09:24:31;11.73;;;3.03;;
61903;SDS011;47857;52.270;6.804;2024-03-23T09:26:57;12.02;;;2.53;;
61903;SDS011;47857;52.270;6.804;2024-03-23T09:29:23;10.55;;;2.22;;
61903;SDS011;47857;52.270;6.804;2024-03-23T09:31:48;12.85;;;2.90;;
61903;SDS011;47857;52.270;6.804;2024-03-23T09:34:13;15.50;;;2.70;;
61903;SDS011;47857;52.270;6.804;2024-03-23T09:36:39;9.20;;;2.80;;
61903;SDS011;47857;52.270;6.804;2024-03-23T09:39:06;12.55;;;2.50;;
61903;SDS011;47857;52.270;6.804;2024-03-23T09:41:33;14.52;;;2.72;;
61903;SDS011;47857;52.270;6.804;2024-03-23T09:43:58;11.32;;;2.63;;
61903;SDS011;47857;52.270;6.804;2024-03-23T09:46:24;12.98;;;2.70;;
61903;SDS011;47857;52.270;6.804;2024-03-23T09:48:50;12.10;;;2.42;;
61903;SDS011;47857;52.270;6.804;2024-03-23T09:51:15;12.65;;;2.38;;
61903;SDS011;47857;52.270;6.804;2024-03-23T09:53:41;13.40;;;2.25;;
61903;SDS011;47857;52.270;6.804;2024-03-23T09:56:07;11.32;;;2.20;;
61903;SDS011;47857;52.270;6.804;2024-03-23T09:58:33;15.82;;;3.30;;
61903;SDS011;47857;52.270;6.804;2024-03-23T10:00:58;14.05;;;2.30;;
61903;SDS011;47857;52.270;6.804;2024-03-23T10:03:24;9.90;;;2.40;;
61903;SDS011;47857;52.270;6.804;2024-03-23T10:05:59;10.60;;;2.50;;
61903;SDS011;47857;52.270;6.804;2024-03-23T10:08:26;10.70;;;1.98;;
61903;SDS011;47857;52.270;6.804;2024-03-23T10:10:54;12.07;;;2.45;;
61903;SDS011;47857;52.270;6.804;2024-03-23T10:13:26;9.25;;;2.10;;
61903;SDS011;47857;52.270;6.804;2024-03-23T10:15:58;10.15;;;2.35;;
61903;SDS011;47857;52.270;6.804;2024-03-23T10:18:24;8.90;;;1.52;;
61903;SDS011;47857;52.270;6.804;2024-03-23T10:23:34;8.52;;;1.77;;
61903;SDS011;47857;52.270;6.804;2024-03-23T10:28:57;10.65;;;1.60;;
61903;SDS011;47857;52.270;6.804;2024-03-23T10:31:27;8.57;;;2.38;;
61903;SDS011;47857;52.270;6.804;2024-03-23T10:33:53;9.38;;;1.88;;
61903;SDS011;47857;52.270;6.804;2024-03-23T10:36:20;11.05;;;2.20;;
61903;SDS011;47857;52.270;6.804;2024-03-23T10:38:46;7.05;;;1.30;;
61903;SDS011;47857;52.270;6.804;2024-03-23T10:41:12;8.38;;;1.90;;
61903;SDS011;47857;52.270;6.804;2024-03-23T10:43:38;6.93;;;1.60;;
61903;SDS011;47857;52.270;6.804;2024-03-23T10:46:04;7.25;;;1.30;;
61903;SDS011;47857;52.270;6.804;2024-03-23T10:48:30;7.20;;;1.45;;
61903;SDS011;47857;52.270;6.804;2024-03-23T10:50:57;7.72;;;1.25;;
61903;SDS011;47857;52.270;6.804;2024-03-23T10:53:25;9.38;;;1.90;;
61903;SDS011;47857;52.270;6.804;2024-03-23T10:55:51;5.72;;;1.00;;
61903;SDS011;47857;52.270;6.804;2024-03-23T10:58:28;7.50;;;1.50;;
61903;SDS011;47857;52.270;6.804;2024-03-23T11:00:57;9.60;;;1.35;;
61903;SDS011;47857;52.270;6.804;2024-03-23T11:03:36;6.30;;;0.90;;
61903;SDS011;47857;52.270;6.804;2024-03-23T11:06:03;4.47;;;0.82;;
61903;SDS011;47857;52.270;6.804;2024-03-23T11:08:38;5.75;;;0.70;;
61903;SDS011;47857;52.270;6.804;2024-03-23T11:11:11;3.97;;;1.00;;
61903;SDS011;47857;52.270;6.804;2024-03-23T11:13:38;5.70;;;1.10;;
61903;SDS011;47857;52.270;6.804;2024-03-23T11:16:13;7.28;;;1.40;;
61903;SDS011;47857;52.270;6.804;2024-03-23T11:18:39;6.97;;;1.52;;
61903;SDS011;47857;52.270;6.804;2024-03-23T11:21:06;10.18;;;1.63;;
61903;SDS011;47857;52.270;6.804;2024-03-23T11:23:32;6.32;;;1.23;;
61903;SDS011;47857;52.270;6.804;2024-03-23T11:25:57;8.48;;;1.52;;
61903;SDS011;47857;52.270;6.804;2024-03-23T11:28:23;28.85;;;2.00;;
61903;SDS011;47857;52.270;6.804;2024-03-23T11:30:48;5.70;;;1.40;;
61903;SDS011;47857;52.270;6.804;2024-03-23T11:33:14;5.38;;;1.17;;
61903;SDS011;47857;52.270;6.804;2024-03-23T11:35:40;8.32;;;1.10;;
61903;SDS011;47857;52.270;6.804;2024-03-23T11:38:15;4.22;;;1.30;;
61903;SDS011;47857;52.270;6.804;2024-03-23T11:40:45;5.13;;;1.10;;
61903;SDS011;47857;52.270;6.804;2024-03-23T11:43:13;4.28;;;0.93;;
61903;SDS011;47857;52.270;6.804;2024-03-23T11:45:43;4.70;;;1.10;;
61903;SDS011;47857;52.270;6.804;2024-03-23T11:48:10;7.55;;;1.65;;
61903;SDS011;47857;52.270;6.804;2024-03-23T11:50:37;5.15;;;1.40;;
61903;SDS011;47857;52.270;6.804;2024-03-23T11:58:14;6.95;;;1.35;;
61903;SDS011;47857;52.270;6.804;2024-03-23T12:00:40;6.95;;;1.40;;
61903;SDS011;47857;52.270;6.804;2024-03-23T12:03:06;6.80;;;1.30;;
61903;SDS011;47857;52.270;6.804;2024-03-23T12:05:31;9.23;;;1.50;;
61903;SDS011;47857;52.270;6.804;2024-03-23T12:10:49;8.57;;;1.33;;
61903;SDS011;47857;52.270;6.804;2024-03-23T12:13:20;7.80;;;1.70;;
61903;SDS011;47857;52.270;6.804;2024-03-23T12:15:47;6.45;;;1.65;;
61903;SDS011;47857;52.270;6.804;2024-03-23T12:18:15;11.32;;;1.98;;
61903;SDS011;47857;52.270;6.804;2024-03-23T12:20:41;8.38;;;1.42;;
61903;SDS011;47857;52.270;6.804;2024-03-23T12:23:07;9.40;;;1.70;;
61903;SDS011;47857;52.270;6.804;2024-03-23T12:25:35;5.38;;;1.30;;
61903;SDS011;47857;52.270;6.804;2024-03-23T12:28:01;7.85;;;1.27;;
61903;SDS011;47857;52.270;6.804;2024-03-23T12:30:27;11.02;;;2.08;;
61903;SDS011;47857;52.270;6.804;2024-03-23T12:32:52;8.45;;;1.35;;
61903;SDS011;47857;52.270;6.804;2024-03-23T12:35:18;11.50;;;2.00;;
61903;SDS011;47857;52.270;6.804;2024-03-23T12:37:43;7.53;;;1.60;;
61903;SDS011;47857;52.270;6.804;2024-03-23T12:40:09;8.32;;;1.65;;
61903;SDS011;47857;52.270;6.804;2024-03-23T12:42:35;7.97;;;1.45;;
61903;SDS011;47857;52.270;6.804;2024-03-23T12:45:01;7.50;;;1.70;;
61903;SDS011;47857;52.270;6.804;2024-03-23T12:47:26;11.20;;;1.77;;
61903;SDS011;47857;52.270;6.804;2024-03-23T12:49:52;6.65;;;1.10;;
61903;SDS011;47857;52.270;6.804;2024-03-23T12:52:17;6.72;;;1.25;;
61903;SDS011;47857;52.270;6.804;2024-03-23T12:54:45;7.72;;;1.50;;
61903;SDS011;47857;52.270;6.804;2024-03-23T12:57:10;6.25;;;1.35;;
61903;SDS011;47857;52.270;6.804;2024-03-23T12:59:36;5.20;;;1.33;;
61903;SDS011;47857;52.270;6.804;2024-03-23T13:02:01;8.32;;;1.63;;
61903;SDS011;47857;52.270;6.804;2024-03-23T13:04:27;5.88;;;1.17;;
61903;SDS011;47857;52.270;6.804;2024-03-23T13:06:52;5.05;;;1.02;;
61903;SDS011;47857;52.270;6.804;2024-03-23T13:09:18;6.72;;;1.23;;
61903;SDS011;47857;52.270;6.804;2024-03-23T13:11:43;10.10;;;1.50;;
61903;SDS011;47857;52.270;6.804;2024-03-23T13:14:09;8.40;;;1.40;;
61903;SDS011;47857;52.270;6.804;2024-03-23T13:16:35;9.52;;;1.67;;
61903;SDS011;47857;52.270;6.804;2024-03-23T13:19:00;6.95;;;1.27;;
61903;SDS011;47857;52.270;6.804;2024-03-23T13:21:26;8.98;;;1.73;;
61903;SDS011;47857;52.270;6.804;2024-03-23T13:23:52;10.57;;;1.83;;
61903;SDS011;47857;52.270;6.804;2024-03-23T13:26:17;5.53;;;1.25;;
61903;SDS011;47857;52.270;6.804;2024-03-23T13:28:43;8.30;;;1.73;;
61903;SDS011;47857;52.270;6.804;2024-03-23T13:31:09;8.57;;;1.48;;
61903;SDS011;47857;52.270;6.804;2024-03-23T13:33:35;8.93;;;1.70;;
61903;SDS011;47857;52.270;6.804;2024-03-23T13:36:00;8.82;;;1.52;;
61903;SDS011;47857;52.270;6.804;2024-03-23T13:38:28;7.38;;;1.30;;
61903;SDS011;47857;52.270;6.804;2024-03-23T13:40:54;3.97;;;1.30;;
61903;SDS011;47857;52.270;6.804;2024-03-23T13:43:21;5.00;;;0.88;;
61903;SDS011;47857;52.270;6.804;2024-03-23T13:45:47;6.95;;;1.30;;
61903;SDS011;47857;52.270;6.804;2024-03-23T13:48:14;7.95;;;1.15;;
61903;SDS011;47857;52.270;6.804;2024-03-23T13:50:40;12.48;;;1.60;;
61903;SDS011;47857;52.270;6.804;2024-03-23T13:53:06;7.97;;;1.70;;
61903;SDS011;47857;52.270;6.804;2024-03-23T13:55:33;9.60;;;1.67;;
61903;SDS011;47857;52.270;6.804;2024-03-23T13:57:58;10.50;;;2.25;;
61903;SDS011;47857;52.270;6.804;2024-03-23T14:00:24;13.43;;;2.17;;
61903;SDS011;47857;52.270;6.804;2024-03-23T14:02:49;7.45;;;1.13;;
61903;SDS011;47857;52.270;6.804;2024-03-23T14:05:15;10.90;;;1.95;;
61903;SDS011;47857;52.270;6.804;2024-03-23T14:07:41;14.18;;;2.45;;
61903;SDS011;47857;52.270;6.804;2024-03-23T14:10:06;6.93;;;1.33;;
61903;SDS011;47857;52.270;6.804;2024-03-23T14:12:32;7.72;;;1.23;;
61903;SDS011;47857;52.270;6.804;2024-03-23T14:14:58;7.32;;;1.00;;
61903;SDS011;47857;52.270;6.804;2024-03-23T14:17:23;5.70;;;1.27;;
61903;SDS011;47857;52.270;6.804;2024-03-23T14:19:49;11.30;;;2.35;;
61903;SDS011;47857;52.270;6.804;2024-03-23T14:22:15;7.30;;;1.38;;
61903;SDS011;47857;52.270;6.804;2024-03-23T14:24:44;12.68;;;1.80;;
61903;SDS011;47857;52.270;6.804;2024-03-23T14:27:10;10.27;;;1.92;;
61903;SDS011;47857;52.270;6.804;2024-03-23T14:29:35;7.53;;;1.30;;
61903;SDS011;47857;52.270;6.804;2024-03-23T14:32:01;8.48;;;1.48;;
61903;SDS011;47857;52.270;6.804;2024-03-23T14:34:26;6.75;;;1.50;;
61903;SDS011;47857;52.270;6.804;2024-03-23T14:36:53;7.93;;;1.15;;
61903;SDS011;47857;52.270;6.804;2024-03-23T14:39:22;6.38;;;1.90;;
61903;SDS011;47857;52.270;6.804;2024-03-23T14:41:49;6.95;;;1.63;;
61903;SDS011;47857;52.270;6.804;2024-03-23T14:44:15;7.20;;;1.80;;
61903;SDS011;47857;52.270;6.804;2024-03-23T14:46:41;10.38;;;1.80;;
61903;SDS011;47857;52.270;6.804;2024-03-23T14:49:06;3.72;;;1.10;;
61903;SDS011;47857;52.270;6.804;2024-03-23T14:51:32;13.90;;;1.70;;
61903;SDS011;47857;52.270;6.804;2024-03-23T14:53:58;5.13;;;1.17;;
61903;SDS011;47857;52.270;6.804;2024-03-23T14:56:24;5.22;;;1.30;;
61903;SDS011;47857;52.270;6.804;2024-03-23T14:58:52;9.85;;;1.75;;
61903;SDS011;47857;52.270;6.804;2024-03-23T15:01:18;6.22;;;1.40;;
61903;SDS011;47857;52.270;6.804;2024-03-23T15:03:44;9.98;;;1.40;;
61903;SDS011;47857;52.270;6.804;2024-03-23T15:06:09;6.25;;;1.25;;
61903;SDS011;47857;52.270;6.804;2024-03-23T15:08:36;5.43;;;1.17;;
61903;SDS011;47857;52.270;6.804;2024-03-23T15:11:03;6.05;;;1.33;;
61903;SDS011;47857;52.270;6.804;2024-03-23T15:13:33;6.65;;;1.67;;
61903;SDS011;47857;52.270;6.804;2024-03-23T15:16:01;10.38;;;1.63;;
61903;SDS011;47857;52.270;6.804;2024-03-23T15:18:31;7.88;;;1.58;;
61903;SDS011;47857;52.270;6.804;2024-03-23T15:21:01;10.90;;;1.45;;
61903;SDS011;47857;52.270;6.804;2024-03-23T15:23:33;7.85;;;1.40;;
61903;SDS011;47857;52.270;6.804;2024-03-23T15:25:59;8.25;;;1.80;;
61903;SDS011;47857;52.270;6.804;2024-03-23T15:28:25;5.65;;;1.88;;
61903;SDS011;47857;52.270;6.804;2024-03-23T15:31:05;8.77;;;1.70;;
61903;SDS011;47857;52.270;6.804;2024-03-23T15:33:32;9.70;;;1.40;;
61903;SDS011;47857;52.270;6.804;2024-03-23T15:36:00;5.10;;;1.48;;
61903;SDS011;47857;52.270;6.804;2024-03-23T15:38:27;4.97;;;0.93;;